sensor_id;sensor_type;location;lat;lon;timestamp;temperature;humidity
15455;DHT22;21057;51.024;7.540;2024-03-08T00:00:28;4.10;99.90
15455;DHT22;21057;51.024;7.540;2024-03-08T00:02:58;4.00;99.90
15455;DHT22;21057;51.024;7.540;2024-03-08T00:05:26;3.90;99.90
15455;DHT22;21057;51.024;7.540;2024-03-08T00:07:55;3.80;99.90
15455;DHT22;21057;51.024;7.540;2024-03-08T00:10:22;3.80;99.90
15455;DHT22;21057;51.024;7.540;2024-03-08T00:12:49;4.00;99.90
15455;DHT22;21057;51.024;7.540;2024-03-08T00:15:17;3.90;99.90
15455;DHT22;21057;51.024;7.540;2024-03-08T00:17:44;3.80;99.90
15455;DHT22;21057;51.024;7.540;2024-03-08T00:20:11;3.80;99.90
15455;DHT22;21057;51.024;7.540;2024-03-08T00:22:38;3.80;99.90
15455;DHT22;21057;51.024;7.540;2024-03-08T00:25:08;3.90;99.90
15455;DHT22;21057;51.024;7.540;2024-03-08T00:27:35;3.70;99.90
15455;DHT22;21057;51.024;7.540;2024-03-08T00:30:02;3.80;99.90
15455;DHT22;21057;51.024;7.540;2024-03-08T00:32:29;3.70;99.90
15455;DHT22;21057;51.024;7.540;2024-03-08T00:34:57;3.70;99.90
15455;DHT22;21057;51.024;7.540;2024-03-08T00:37:24;3.60;99.90
15455;DHT22;21057;51.024;7.540;2024-03-08T00:39:50;3.70;99.90
15455;DHT22;21057;51.024;7.540;2024-03-08T00:42:19;3.70;99.90
15455;DHT22;21057;51.024;7.540;2024-03-08T00:44:46;3.70;99.90
15455;DHT22;21057;51.024;7.540;2024-03-08T00:47:13;3.60;99.90
15455;DHT22;21057;51.024;7.540;2024-03-08T00:49:41;3.60;99.90
15455;DHT22;21057;51.024;7.540;2024-03-08T00:52:09;3.80;99.90
15455;DHT22;21057;51.024;7.540;2024-03-08T00:54:36;3.60;99.90
15455;DHT22;21057;51.024;7.540;2024-03-08T00:57:03;3.60;99.90
15455;DHT22;21057;51.024;7.540;2024-03-08T00:59:31;3.60;99.90
15455;DHT22;21057;51.024;7.540;2024-03-08T01:01:59;3.60;99.90
15455;DHT22;21057;51.024;7.540;2024-03-08T01:04:26;3.60;99.90
15455;DHT22;21057;51.024;7.540;2024-03-08T01:06:54;3.70;99.90
15455;DHT22;21057;51.024;7.540;2024-03-08T01:09:21;3.70;99.90
15455;DHT22;21057;51.024;7.540;2024-03-08T01:11:48;3.60;99.90
15455;DHT22;21057;51.024;7.540;2024-03-08T01:14:15;3.50;99.90
15455;DHT22;21057;51.024;7.540;2024-03-08T01:16:43;3.60;99.90
15455;DHT22;21057;51.024;7.540;2024-03-08T01:19:10;3.50;99.90
15455;DHT22;21057;51.024;7.540;2024-03-08T01:21:37;3.60;99.90
15455;DHT22;21057;51.024;7.540;2024-03-08T01:24:04;3.70;99.90
15455;DHT22;21057;51.024;7.540;2024-03-08T01:26:31;3.80;99.90
15455;DHT22;21057;51.024;7.540;2024-03-08T01:28:59;3.70;99.90
15455;DHT22;21057;51.024;7.540;2024-03-08T01:31:28;3.60;99.90
15455;DHT22;21057;51.024;7.540;2024-03-08T01:33:56;3.60;99.90
15455;DHT22;21057;51.024;7.540;2024-03-08T01:36:23;3.60;99.90
15455;DHT22;21057;51.024;7.540;2024-03-08T01:38:50;3.50;99.90
15455;DHT22;21057;51.024;7.540;2024-03-08T01:41:17;3.40;99.90
15455;DHT22;21057;51.024;7.540;2024-03-08T01:43:44;3.50;99.90
15455;DHT22;21057;51.024;7.540;2024-03-08T01:46:13;3.40;99.90
15455;DHT22;21057;51.024;7.540;2024-03-08T01:48:42;3.40;99.90
15455;DHT22;21057;51.024;7.540;2024-03-08T01:51:10;3.50;99.90
15455;DHT22;21057;51.024;7.540;2024-03-08T01:53:38;3.50;99.90
15455;DHT22;21057;51.024;7.540;2024-03-08T01:56:06;3.50;99.90
15455;DHT22;21057;51.024;7.540;2024-03-08T01:58:35;3.50;99.90
15455;DHT22;21057;51.024;7.540;2024-03-08T02:01:02;3.40;99.90
15455;DHT22;21057;51.024;7.540;2024-03-08T02:03:30;3.20;99.90
15455;DHT22;21057;51.024;7.540;2024-03-08T02:05:57;3.20;99.90
15455;DHT22;21057;51.024;7.540;2024-03-08T02:08:25;3.40;99.90
15455;DHT22;21057;51.024;7.540;2024-03-08T02:10:52;3.40;99.90
15455;DHT22;21057;51.024;7.540;2024-03-08T02:13:19;3.60;99.90
15455;DHT22;21057;51.024;7.540;2024-03-08T02:15:53;3.50;99.90
15455;DHT22;21057;51.024;7.540;2024-03-08T02:18:21;3.50;99.90
15455;DHT22;21057;51.024;7.540;2024-03-08T02:20:49;3.60;99.90
15455;DHT22;21057;51.024;7.540;2024-03-08T02:23:16;3.40;99.90
15455;DHT22;21057;51.024;7.540;2024-03-08T02:25:43;3.40;99.90
15455;DHT22;21057;51.024;7.540;2024-03-08T02:28:11;3.30;99.90
15455;DHT22;21057;51.024;7.540;2024-03-08T02:30:38;3.40;99.90
15455;DHT22;21057;51.024;7.540;2024-03-08T02:33:06;3.40;99.90
15455;DHT22;21057;51.024;7.540;2024-03-08T02:35:34;3.60;99.90
15455;DHT22;21057;51.024;7.540;2024-03-08T02:38:03;3.40;99.90
15455;DHT22;21057;51.024;7.540;2024-03-08T02:40:30;3.40;99.90
15455;DHT22;21057;51.024;7.540;2024-03-08T02:42:57;3.40;99.90
15455;DHT22;21057;51.024;7.540;2024-03-08T02:45:24;3.50;99.90
15455;DHT22;21057;51.024;7.540;2024-03-08T02:47:51;3.40;99.90
15455;DHT22;21057;51.024;7.540;2024-03-08T02:50:18;3.40;99.90
15455;DHT22;21057;51.024;7.540;2024-03-08T02:52:45;3.50;99.90
15455;DHT22;21057;51.024;7.540;2024-03-08T02:55:14;3.40;99.90
15455;DHT22;21057;51.024;7.540;2024-03-08T02:57:41;3.30;99.90
15455;DHT22;21057;51.024;7.540;2024-03-08T03:00:09;3.30;99.90
15455;DHT22;21057;51.024;7.540;2024-03-08T03:02:36;3.50;99.90
15455;DHT22;21057;51.024;7.540;2024-03-08T03:05:04;3.30;99.90
15455;DHT22;21057;51.024;7.540;2024-03-08T03:07:31;3.40;99.90
15455;DHT22;21057;51.024;7.540;2024-03-08T03:09:59;3.40;99.90
15455;DHT22;21057;51.024;7.540;2024-03-08T03:12:28;3.40;99.90
15455;DHT22;21057;51.024;7.540;2024-03-08T03:14:55;3.20;99.90
15455;DHT22;21057;51.024;7.540;2024-03-08T03:17:22;3.40;99.90
15455;DHT22;21057;51.024;7.540;2024-03-08T03:19:50;3.30;99.90
15455;DHT22;21057;51.024;7.540;2024-03-08T03:22:17;3.30;99.90
15455;DHT22;21057;51.024;7.540;2024-03-08T03:24:44;3.20;99.90
15455;DHT22;21057;51.024;7.540;2024-03-08T03:27:11;3.30;99.90
15455;DHT22;21057;51.024;7.540;2024-03-08T03:29:40;3.40;99.90
15455;DHT22;21057;51.024;7.540;2024-03-08T03:32:07;3.40;99.90
15455;DHT22;21057;51.024;7.540;2024-03-08T03:34:34;3.40;99.90
15455;DHT22;21057;51.024;7.540;2024-03-08T03:37:02;3.40;99.90
15455;DHT22;21057;51.024;7.540;2024-03-08T03:39:29;3.40;99.90
15455;DHT22;21057;51.024;7.540;2024-03-08T03:41:57;3.40;99.90
15455;DHT22;21057;51.024;7.540;2024-03-08T03:44:24;3.50;99.90
15455;DHT22;21057;51.024;7.540;2024-03-08T03:46:52;3.30;99.90
15455;DHT22;21057;51.024;7.540;2024-03-08T03:49:19;3.20;99.90
15455;DHT22;21057;51.024;7.540;2024-03-08T03:51:46;3.40;99.90
15455;DHT22;21057;51.024;7.540;2024-03-08T03:54:13;3.40;99.90
15455;DHT22;21057;51.024;7.540;2024-03-08T03:56:40;3.20;99.90
15455;DHT22;21057;51.024;7.540;2024-03-08T03:59:07;3.20;99.90
15455;DHT22;21057;51.024;7.540;2024-03-08T04:01:34;3.10;99.90
15455;DHT22;21057;51.024;7.540;2024-03-08T04:04:02;3.10;99.90
15455;DHT22;21057;51.024;7.540;2024-03-08T04:06:30;3.10;99.90
15455;DHT22;21057;51.024;7.540;2024-03-08T04:08:57;3.10;99.90
15455;DHT22;21057;51.024;7.540;2024-03-08T04:11:24;3.20;99.90
15455;DHT22;21057;51.024;7.540;2024-03-08T04:13:51;3.20;99.90
15455;DHT22;21057;51.024;7.540;2024-03-08T04:16:18;3.20;99.90
15455;DHT22;21057;51.024;7.540;2024-03-08T04:18:44;3.20;99.90
15455;DHT22;21057;51.024;7.540;2024-03-08T04:21:13;3.00;99.90
15455;DHT22;21057;51.024;7.540;2024-03-08T04:23:40;2.90;99.90
15455;DHT22;21057;51.024;7.540;2024-03-08T04:26:07;3.10;99.90
15455;DHT22;21057;51.024;7.540;2024-03-08T04:28:34;3.00;99.90
15455;DHT22;21057;51.024;7.540;2024-03-08T04:31:03;3.00;99.90
15455;DHT22;21057;51.024;7.540;2024-03-08T04:33:29;3.10;99.90
15455;DHT22;21057;51.024;7.540;2024-03-08T04:35:56;3.10;99.90
15455;DHT22;21057;51.024;7.540;2024-03-08T04:38:24;3.00;99.90
15455;DHT22;21057;51.024;7.540;2024-03-08T04:40:51;3.20;99.90
15455;DHT22;21057;51.024;7.540;2024-03-08T04:43:19;3.20;99.90
15455;DHT22;21057;51.024;7.540;2024-03-08T04:45:46;3.20;99.90
15455;DHT22;21057;51.024;7.540;2024-03-08T04:48:14;3.10;99.90
15455;DHT22;21057;51.024;7.540;2024-03-08T04:50:41;3.20;99.90
15455;DHT22;21057;51.024;7.540;2024-03-08T04:53:07;3.10;99.90
15455;DHT22;21057;51.024;7.540;2024-03-08T04:55:36;3.40;99.90
15455;DHT22;21057;51.024;7.540;2024-03-08T04:58:03;3.10;99.90
15455;DHT22;21057;51.024;7.540;2024-03-08T05:00:31;3.20;99.90
15455;DHT22;21057;51.024;7.540;2024-03-08T05:02:58;3.10;99.90
15455;DHT22;21057;51.024;7.540;2024-03-08T05:05:25;3.00;99.90
15455;DHT22;21057;51.024;7.540;2024-03-08T05:07:54;3.10;99.90
15455;DHT22;21057;51.024;7.540;2024-03-08T05:10:20;3.00;99.90
15455;DHT22;21057;51.024;7.540;2024-03-08T05:12:49;3.10;99.90
15455;DHT22;21057;51.024;7.540;2024-03-08T05:15:15;3.10;99.90
15455;DHT22;21057;51.024;7.540;2024-03-08T05:17:42;3.10;99.90
15455;DHT22;21057;51.024;7.540;2024-03-08T05:20:10;3.20;99.90
15455;DHT22;21057;51.024;7.540;2024-03-08T05:22:38;3.10;99.90
15455;DHT22;21057;51.024;7.540;2024-03-08T05:25:06;3.10;99.90
15455;DHT22;21057;51.024;7.540;2024-03-08T05:27:34;3.00;99.90
15455;DHT22;21057;51.024;7.540;2024-03-08T05:30:04;2.80;99.90
15455;DHT22;21057;51.024;7.540;2024-03-08T05:32:31;3.00;99.90
15455;DHT22;21057;51.024;7.540;2024-03-08T05:34:58;3.00;99.90
15455;DHT22;21057;51.024;7.540;2024-03-08T05:37:24;3.00;99.90
15455;DHT22;21057;51.024;7.540;2024-03-08T05:39:51;3.00;99.90
15455;DHT22;21057;51.024;7.540;2024-03-08T05:42:19;2.90;99.90
15455;DHT22;21057;51.024;7.540;2024-03-08T05:44:46;3.00;99.90
15455;DHT22;21057;51.024;7.540;2024-03-08T05:47:14;2.90;99.90
15455;DHT22;21057;51.024;7.540;2024-03-08T05:49:42;3.00;99.90
15455;DHT22;21057;51.024;7.540;2024-03-08T05:52:09;3.00;99.90
15455;DHT22;21057;51.024;7.540;2024-03-08T05:54:36;3.10;99.90
15455;DHT22;21057;51.024;7.540;2024-03-08T05:57:03;3.10;99.90
15455;DHT22;21057;51.024;7.540;2024-03-08T05:59:31;3.10;99.90
15455;DHT22;21057;51.024;7.540;2024-03-08T06:01:58;3.10;99.90
15455;DHT22;21057;51.024;7.540;2024-03-08T06:04:26;3.20;99.90
15455;DHT22;21057;51.024;7.540;2024-03-08T06:06:54;3.00;99.90
15455;DHT22;21057;51.024;7.540;2024-03-08T06:09:23;3.10;99.90
15455;DHT22;21057;51.024;7.540;2024-03-08T06:11:50;3.20;99.90
15455;DHT22;21057;51.024;7.540;2024-03-08T06:14:17;3.20;99.90
15455;DHT22;21057;51.024;7.540;2024-03-08T06:16:44;3.30;99.90
15455;DHT22;21057;51.024;7.540;2024-03-08T06:19:12;3.20;99.90
15455;DHT22;21057;51.024;7.540;2024-03-08T06:21:40;3.30;99.90
15455;DHT22;21057;51.024;7.540;2024-03-08T06:24:07;3.30;99.90
15455;DHT22;21057;51.024;7.540;2024-03-08T06:26:34;3.30;99.90
15455;DHT22;21057;51.024;7.540;2024-03-08T06:29:03;3.40;99.90
15455;DHT22;21057;51.024;7.540;2024-03-08T06:31:32;3.40;99.90
15455;DHT22;21057;51.024;7.540;2024-03-08T06:33:59;3.30;99.90
15455;DHT22;21057;51.024;7.540;2024-03-08T06:36:25;3.30;99.90
15455;DHT22;21057;51.024;7.540;2024-03-08T06:38:55;3.40;99.90
15455;DHT22;21057;51.024;7.540;2024-03-08T06:41:23;3.50;99.90
15455;DHT22;21057;51.024;7.540;2024-03-08T06:43:49;3.50;99.90
15455;DHT22;21057;51.024;7.540;2024-03-08T06:46:17;3.40;99.90
15455;DHT22;21057;51.024;7.540;2024-03-08T06:48:46;3.40;99.90
15455;DHT22;21057;51.024;7.540;2024-03-08T06:51:12;3.50;99.90
15455;DHT22;21057;51.024;7.540;2024-03-08T06:53:39;3.40;99.90
15455;DHT22;21057;51.024;7.540;2024-03-08T06:56:08;3.40;99.90
15455;DHT22;21057;51.024;7.540;2024-03-08T06:58:34;3.40;99.90
15455;DHT22;21057;51.024;7.540;2024-03-08T07:01:01;3.50;99.90
15455;DHT22;21057;51.024;7.540;2024-03-08T07:03:29;3.50;99.90
15455;DHT22;21057;51.024;7.540;2024-03-08T07:05:57;3.80;99.90
15455;DHT22;21057;51.024;7.540;2024-03-08T07:08:24;3.80;99.90
15455;DHT22;21057;51.024;7.540;2024-03-08T07:10:52;3.70;99.90
15455;DHT22;21057;51.024;7.540;2024-03-08T07:13:20;3.70;99.90
15455;DHT22;21057;51.024;7.540;2024-03-08T07:15:47;3.80;99.90
15455;DHT22;21057;51.024;7.540;2024-03-08T07:18:14;3.80;99.90
15455;DHT22;21057;51.024;7.540;2024-03-08T07:20:41;3.90;99.90
15455;DHT22;21057;51.024;7.540;2024-03-08T07:23:09;3.90;99.90
15455;DHT22;21057;51.024;7.540;2024-03-08T07:25:36;4.00;99.90
15455;DHT22;21057;51.024;7.540;2024-03-08T07:28:04;4.00;99.90
15455;DHT22;21057;51.024;7.540;2024-03-08T07:30:34;4.00;99.90
15455;DHT22;21057;51.024;7.540;2024-03-08T07:33:27;4.10;99.90
15455;DHT22;21057;51.024;7.540;2024-03-08T07:35:53;4.30;99.90
15455;DHT22;21057;51.024;7.540;2024-03-08T07:38:20;4.30;99.90
15455;DHT22;21057;51.024;7.540;2024-03-08T07:40:47;4.30;99.90
15455;DHT22;21057;51.024;7.540;2024-03-08T07:43:14;4.30;99.90
15455;DHT22;21057;51.024;7.540;2024-03-08T07:45:43;4.40;99.90
15455;DHT22;21057;51.024;7.540;2024-03-08T07:48:10;4.40;99.90
15455;DHT22;21057;51.024;7.540;2024-03-08T07:50:37;4.40;99.90
15455;DHT22;21057;51.024;7.540;2024-03-08T07:53:05;4.40;99.90
15455;DHT22;21057;51.024;7.540;2024-03-08T07:55:32;4.50;99.90
15455;DHT22;21057;51.024;7.540;2024-03-08T07:58:00;4.50;99.90
15455;DHT22;21057;51.024;7.540;2024-03-08T08:00:28;4.50;99.90
15455;DHT22;21057;51.024;7.540;2024-03-08T08:02:58;4.70;99.90
15455;DHT22;21057;51.024;7.540;2024-03-08T08:05:24;4.60;99.90
15455;DHT22;21057;51.024;7.540;2024-03-08T08:07:51;4.50;99.90
15455;DHT22;21057;51.024;7.540;2024-03-08T08:10:18;4.50;99.90
15455;DHT22;21057;51.024;7.540;2024-03-08T08:12:47;4.60;99.90
15455;DHT22;21057;51.024;7.540;2024-03-08T08:15:14;4.60;99.90
15455;DHT22;21057;51.024;7.540;2024-03-08T08:17:41;4.80;99.90
15455;DHT22;21057;51.024;7.540;2024-03-08T08:20:10;5.00;99.90
15455;DHT22;21057;51.024;7.540;2024-03-08T08:22:38;5.20;99.90
15455;DHT22;21057;51.024;7.540;2024-03-08T08:25:06;5.20;99.90
15455;DHT22;21057;51.024;7.540;2024-03-08T08:27:33;5.30;99.90
15455;DHT22;21057;51.024;7.540;2024-03-08T08:30:02;5.30;99.90
15455;DHT22;21057;51.024;7.540;2024-03-08T08:32:30;5.20;99.90
15455;DHT22;21057;51.024;7.540;2024-03-08T08:34:57;5.40;99.90
15455;DHT22;21057;51.024;7.540;2024-03-08T08:37:26;5.40;99.90
15455;DHT22;21057;51.024;7.540;2024-03-08T08:39:54;5.60;99.90
15455;DHT22;21057;51.024;7.540;2024-03-08T08:42:20;5.50;99.90
15455;DHT22;21057;51.024;7.540;2024-03-08T08:44:47;5.40;99.90
15455;DHT22;21057;51.024;7.540;2024-03-08T08:47:16;5.40;99.90
15455;DHT22;21057;51.024;7.540;2024-03-08T08:49:44;5.50;99.90
15455;DHT22;21057;51.024;7.540;2024-03-08T08:52:12;5.40;99.90
15455;DHT22;21057;51.024;7.540;2024-03-08T08:54:40;5.50;99.90
15455;DHT22;21057;51.024;7.540;2024-03-08T08:57:07;5.70;99.90
15455;DHT22;21057;51.024;7.540;2024-03-08T08:59:34;5.70;99.90
15455;DHT22;21057;51.024;7.540;2024-03-08T09:02:01;5.70;99.90
15455;DHT22;21057;51.024;7.540;2024-03-08T09:04:29;5.80;99.90
15455;DHT22;21057;51.024;7.540;2024-03-08T09:06:56;5.90;99.90
15455;DHT22;21057;51.024;7.540;2024-03-08T09:09:23;5.80;99.90
15455;DHT22;21057;51.024;7.540;2024-03-08T09:11:52;5.80;99.90
15455;DHT22;21057;51.024;7.540;2024-03-08T09:14:19;5.90;99.90
15455;DHT22;21057;51.024;7.540;2024-03-08T09:16:46;6.10;99.90
15455;DHT22;21057;51.024;7.540;2024-03-08T09:19:13;6.20;99.90
15455;DHT22;21057;51.024;7.540;2024-03-08T09:21:40;6.20;99.90
15455;DHT22;21057;51.024;7.540;2024-03-08T09:24:07;6.20;99.90
15455;DHT22;21057;51.024;7.540;2024-03-08T09:26:34;6.30;99.90
15455;DHT22;21057;51.024;7.540;2024-03-08T09:29:02;6.60;99.90
15455;DHT22;21057;51.024;7.540;2024-03-08T09:31:29;6.40;99.90
15455;DHT22;21057;51.024;7.540;2024-03-08T09:33:55;6.50;99.90
15455;DHT22;21057;51.024;7.540;2024-03-08T09:36:22;6.30;99.90
15455;DHT22;21057;51.024;7.540;2024-03-08T09:38:50;6.60;99.90
15455;DHT22;21057;51.024;7.540;2024-03-08T09:41:18;6.60;99.90
15455;DHT22;21057;51.024;7.540;2024-03-08T09:43:46;6.80;99.90
15455;DHT22;21057;51.024;7.540;2024-03-08T09:46:14;6.90;99.90
15455;DHT22;21057;51.024;7.540;2024-03-08T09:48:42;7.00;99.90
15455;DHT22;21057;51.024;7.540;2024-03-08T09:51:09;7.20;99.90
15455;DHT22;21057;51.024;7.540;2024-03-08T09:53:39;7.30;99.90
15455;DHT22;21057;51.024;7.540;2024-03-08T09:56:06;7.40;99.90
15455;DHT22;21057;51.024;7.540;2024-03-08T09:58:33;7.80;99.90
15455;DHT22;21057;51.024;7.540;2024-03-08T10:01:18;8.60;99.90
15455;DHT22;21057;51.024;7.540;2024-03-08T10:03:47;9.90;99.90
15455;DHT22;21057;51.024;7.540;2024-03-08T10:06:14;10.60;99.90
15455;DHT22;21057;51.024;7.540;2024-03-08T10:08:41;11.00;99.90
15455;DHT22;21057;51.024;7.540;2024-03-08T10:11:08;11.80;99.80
15455;DHT22;21057;51.024;7.540;2024-03-08T10:13:37;12.60;97.70
15455;DHT22;21057;51.024;7.540;2024-03-08T10:16:06;12.40;95.70
15455;DHT22;21057;51.024;7.540;2024-03-08T10:18:34;12.40;94.90
15455;DHT22;21057;51.024;7.540;2024-03-08T10:21:05;12.80;94.30
15455;DHT22;21057;51.024;7.540;2024-03-08T10:23:33;13.00;93.40
15455;DHT22;21057;51.024;7.540;2024-03-08T10:26:12;13.40;93.80
15455;DHT22;21057;51.024;7.540;2024-03-08T10:28:41;13.40;91.90
15455;DHT22;21057;51.024;7.540;2024-03-08T10:31:09;13.70;93.00
15455;DHT22;21057;51.024;7.540;2024-03-08T10:33:37;13.80;92.50
15455;DHT22;21057;51.024;7.540;2024-03-08T10:36:07;14.40;91.20
15455;DHT22;21057;51.024;7.540;2024-03-08T10:38:36;14.80;91.10
15455;DHT22;21057;51.024;7.540;2024-03-08T10:41:05;15.30;86.60
15455;DHT22;21057;51.024;7.540;2024-03-08T10:43:42;15.30;87.00
15455;DHT22;21057;51.024;7.540;2024-03-08T10:46:16;15.50;86.30
15455;DHT22;21057;51.024;7.540;2024-03-08T10:48:50;15.80;83.70
15455;DHT22;21057;51.024;7.540;2024-03-08T10:51:19;15.80;84.70
15455;DHT22;21057;51.024;7.540;2024-03-08T10:53:48;15.40;81.20
15455;DHT22;21057;51.024;7.540;2024-03-08T10:56:16;15.90;83.40
15455;DHT22;21057;51.024;7.540;2024-03-08T10:58:44;16.10;79.40
15455;DHT22;21057;51.024;7.540;2024-03-08T11:01:12;16.30;79.90
15455;DHT22;21057;51.024;7.540;2024-03-08T11:03:48;16.00;76.20
15455;DHT22;21057;51.024;7.540;2024-03-08T11:06:22;15.90;76.30
15455;DHT22;21057;51.024;7.540;2024-03-08T11:08:49;16.10;76.20
15455;DHT22;21057;51.024;7.540;2024-03-08T11:11:27;16.20;77.00
15455;DHT22;21057;51.024;7.540;2024-03-08T11:13:56;16.30;75.00
15455;DHT22;21057;51.024;7.540;2024-03-08T11:16:39;16.10;74.50
15455;DHT22;21057;51.024;7.540;2024-03-08T11:19:26;16.20;74.60
15455;DHT22;21057;51.024;7.540;2024-03-08T11:22:01;16.20;70.50
15455;DHT22;21057;51.024;7.540;2024-03-08T11:24:28;15.80;73.00
15455;DHT22;21057;51.024;7.540;2024-03-08T11:27:05;15.50;72.70
15455;DHT22;21057;51.024;7.540;2024-03-08T11:29:36;15.60;73.50
15455;DHT22;21057;51.024;7.540;2024-03-08T11:32:08;15.40;71.00
15455;DHT22;21057;51.024;7.540;2024-03-08T11:34:38;15.60;74.20
15455;DHT22;21057;51.024;7.540;2024-03-08T11:37:10;15.10;73.40
15455;DHT22;21057;51.024;7.540;2024-03-08T11:39:39;14.60;74.00
15455;DHT22;21057;51.024;7.540;2024-03-08T11:42:06;14.50;75.80
15455;DHT22;21057;51.024;7.540;2024-03-08T11:44:33;14.10;77.30
15455;DHT22;21057;51.024;7.540;2024-03-08T11:47:01;13.60;83.50
15455;DHT22;21057;51.024;7.540;2024-03-08T11:49:31;13.40;81.90
15455;DHT22;21057;51.024;7.540;2024-03-08T11:52:00;12.30;85.60
15455;DHT22;21057;51.024;7.540;2024-03-08T11:54:28;12.40;89.80
15455;DHT22;21057;51.024;7.540;2024-03-08T11:56:56;12.00;88.40
15455;DHT22;21057;51.024;7.540;2024-03-08T11:59:26;11.50;90.20
15455;DHT22;21057;51.024;7.540;2024-03-08T12:02:01;11.40;91.60
15455;DHT22;21057;51.024;7.540;2024-03-08T12:04:29;11.30;91.60
15455;DHT22;21057;51.024;7.540;2024-03-08T12:06:57;11.10;91.90
15455;DHT22;21057;51.024;7.540;2024-03-08T12:09:28;11.00;91.50
15455;DHT22;21057;51.024;7.540;2024-03-08T12:11:55;10.50;93.20
15455;DHT22;21057;51.024;7.540;2024-03-08T12:14:22;10.30;93.70
15455;DHT22;21057;51.024;7.540;2024-03-08T12:16:51;10.20;93.10
15455;DHT22;21057;51.024;7.540;2024-03-08T12:19:18;10.10;94.20
15455;DHT22;21057;51.024;7.540;2024-03-08T12:21:45;10.20;93.70
15455;DHT22;21057;51.024;7.540;2024-03-08T12:24:15;10.30;94.80
15455;DHT22;21057;51.024;7.540;2024-03-08T12:26:46;10.30;94.30
15455;DHT22;21057;51.024;7.540;2024-03-08T12:29:15;10.20;94.80
15455;DHT22;21057;51.024;7.540;2024-03-08T12:31:43;10.20;93.80
15455;DHT22;21057;51.024;7.540;2024-03-08T12:34:10;10.50;94.40
15455;DHT22;21057;51.024;7.540;2024-03-08T12:36:45;10.50;93.50
15455;DHT22;21057;51.024;7.540;2024-03-08T12:39:13;10.50;94.60
15455;DHT22;21057;51.024;7.540;2024-03-08T12:41:41;10.40;95.00
15455;DHT22;21057;51.024;7.540;2024-03-08T12:44:10;10.50;95.60
15455;DHT22;21057;51.024;7.540;2024-03-08T12:46:38;10.40;95.80
15455;DHT22;21057;51.024;7.540;2024-03-08T12:49:08;10.30;95.70
15455;DHT22;21057;51.024;7.540;2024-03-08T12:51:36;10.20;95.80
15455;DHT22;21057;51.024;7.540;2024-03-08T12:54:04;10.30;96.40
15455;DHT22;21057;51.024;7.540;2024-03-08T12:56:33;10.40;95.80
15455;DHT22;21057;51.024;7.540;2024-03-08T12:59:00;10.30;95.80
15455;DHT22;21057;51.024;7.540;2024-03-08T13:01:29;10.40;95.90
15455;DHT22;21057;51.024;7.540;2024-03-08T13:03:57;10.40;96.00
15455;DHT22;21057;51.024;7.540;2024-03-08T13:06:26;10.50;95.40
15455;DHT22;21057;51.024;7.540;2024-03-08T13:08:54;10.30;95.90
15455;DHT22;21057;51.024;7.540;2024-03-08T13:11:22;10.20;96.30
15455;DHT22;21057;51.024;7.540;2024-03-08T13:13:50;10.20;97.20
15455;DHT22;21057;51.024;7.540;2024-03-08T13:16:16;10.40;96.00
15455;DHT22;21057;51.024;7.540;2024-03-08T13:18:46;10.70;96.80
15455;DHT22;21057;51.024;7.540;2024-03-08T13:21:15;11.10;95.30
15455;DHT22;21057;51.024;7.540;2024-03-08T13:23:45;11.50;94.90
15455;DHT22;21057;51.024;7.540;2024-03-08T13:26:15;12.00;93.20
15455;DHT22;21057;51.024;7.540;2024-03-08T13:28:43;12.50;93.00
15455;DHT22;21057;51.024;7.540;2024-03-08T13:31:10;13.00;92.60
15455;DHT22;21057;51.024;7.540;2024-03-08T13:33:38;13.60;90.50
15455;DHT22;21057;51.024;7.540;2024-03-08T13:36:10;13.90;90.20
15455;DHT22;21057;51.024;7.540;2024-03-08T13:38:42;14.00;87.50
15455;DHT22;21057;51.024;7.540;2024-03-08T13:41:11;14.30;87.80
15455;DHT22;21057;51.024;7.540;2024-03-08T13:43:40;14.70;86.50
15455;DHT22;21057;51.024;7.540;2024-03-08T13:46:07;15.20;86.40
15455;DHT22;21057;51.024;7.540;2024-03-08T13:48:36;14.90;85.70
15455;DHT22;21057;51.024;7.540;2024-03-08T13:51:04;15.10;82.90
15455;DHT22;21057;51.024;7.540;2024-03-08T13:53:34;15.10;85.00
15455;DHT22;21057;51.024;7.540;2024-03-08T13:56:01;15.00;85.10
15455;DHT22;21057;51.024;7.540;2024-03-08T13:58:28;15.00;82.60
15455;DHT22;21057;51.024;7.540;2024-03-08T14:00:55;15.10;84.80
15455;DHT22;21057;51.024;7.540;2024-03-08T14:03:22;15.30;84.20
15455;DHT22;21057;51.024;7.540;2024-03-08T14:05:50;15.60;82.10
15455;DHT22;21057;51.024;7.540;2024-03-08T14:08:17;15.60;80.80
15455;DHT22;21057;51.024;7.540;2024-03-08T14:13:56;15.30;83.30
15455;DHT22;21057;51.024;7.540;2024-03-08T14:16:23;15.40;82.80
15455;DHT22;21057;51.024;7.540;2024-03-08T14:19:03;15.70;82.90
15455;DHT22;21057;51.024;7.540;2024-03-08T14:21:31;15.70;80.80
15455;DHT22;21057;51.024;7.540;2024-03-08T14:24:07;15.80;80.60
15455;DHT22;21057;51.024;7.540;2024-03-08T14:26:52;15.90;79.30
15455;DHT22;21057;51.024;7.540;2024-03-08T14:29:20;15.70;81.30
15455;DHT22;21057;51.024;7.540;2024-03-08T14:31:47;15.40;82.60
15455;DHT22;21057;51.024;7.540;2024-03-08T14:34:14;15.50;80.40
15455;DHT22;21057;51.024;7.540;2024-03-08T14:36:42;15.20;80.40
15455;DHT22;21057;51.024;7.540;2024-03-08T14:39:10;15.10;81.10
15455;DHT22;21057;51.024;7.540;2024-03-08T14:41:37;14.10;83.40
15455;DHT22;21057;51.024;7.540;2024-03-08T14:44:04;13.90;85.60
15455;DHT22;21057;51.024;7.540;2024-03-08T14:46:32;13.70;85.50
15455;DHT22;21057;51.024;7.540;2024-03-08T14:49:00;14.00;88.30
15455;DHT22;21057;51.024;7.540;2024-03-08T14:51:27;14.30;85.50
15455;DHT22;21057;51.024;7.540;2024-03-08T14:53:55;14.00;86.10
15455;DHT22;21057;51.024;7.540;2024-03-08T14:56:22;13.90;85.30
15455;DHT22;21057;51.024;7.540;2024-03-08T14:58:52;13.60;84.40
15455;DHT22;21057;51.024;7.540;2024-03-08T15:01:21;13.70;86.60
15455;DHT22;21057;51.024;7.540;2024-03-08T15:06:56;13.40;84.80
15455;DHT22;21057;51.024;7.540;2024-03-08T15:09:31;13.00;87.90
15455;DHT22;21057;51.024;7.540;2024-03-08T15:12:11;12.70;90.30
15455;DHT22;21057;51.024;7.540;2024-03-08T15:14:41;12.50;90.50
15455;DHT22;21057;51.024;7.540;2024-03-08T15:17:10;12.40;91.30
15455;DHT22;21057;51.024;7.540;2024-03-08T15:19:48;12.40;90.70
15455;DHT22;21057;51.024;7.540;2024-03-08T15:22:17;12.30;91.50
15455;DHT22;21057;51.024;7.540;2024-03-08T15:24:45;12.40;91.90
15455;DHT22;21057;51.024;7.540;2024-03-08T15:27:15;12.40;90.70
15455;DHT22;21057;51.024;7.540;2024-03-08T15:29:42;12.20;91.30
15455;DHT22;21057;51.024;7.540;2024-03-08T15:32:13;12.20;91.90
15455;DHT22;21057;51.024;7.540;2024-03-08T15:34:45;12.20;92.20
15455;DHT22;21057;51.024;7.540;2024-03-08T15:37:13;12.20;90.60
15455;DHT22;21057;51.024;7.540;2024-03-08T15:39:45;11.80;91.70
15455;DHT22;21057;51.024;7.540;2024-03-08T15:42:12;11.80;92.20
15455;DHT22;21057;51.024;7.540;2024-03-08T15:44:50;11.50;92.70
15455;DHT22;21057;51.024;7.540;2024-03-08T15:47:17;11.50;93.00
15455;DHT22;21057;51.024;7.540;2024-03-08T15:49:47;11.20;92.90
15455;DHT22;21057;51.024;7.540;2024-03-08T15:52:18;10.80;94.30